sensor_id;sensor_type;location;lat;lon;timestamp;temperature;humidity
24468;DHT22;12634;50.852;5.676;2023-02-11T00:01:29;6.40;99.90
24468;DHT22;12634;50.852;5.676;2023-02-11T00:03:57;6.40;99.90
24468;DHT22;12634;50.852;5.676;2023-02-11T00:06:26;6.30;99.90
24468;DHT22;12634;50.852;5.676;2023-02-11T00:08:55;6.20;99.90
24468;DHT22;12634;50.852;5.676;2023-02-11T00:11:23;6.10;99.90
24468;DHT22;12634;50.852;5.676;2023-02-11T00:13:55;6.10;99.90
24468;DHT22;12634;50.852;5.676;2023-02-11T00:16:24;6.00;99.90
24468;DHT22;12634;50.852;5.676;2023-02-11T00:18:52;6.00;99.90
24468;DHT22;12634;50.852;5.676;2023-02-11T00:21:20;5.90;99.90
24468;DHT22;12634;50.852;5.676;2023-02-11T00:23:48;5.80;99.90
24468;DHT22;12634;50.852;5.676;2023-02-11T00:26:18;5.70;99.90
24468;DHT22;12634;50.852;5.676;2023-02-11T00:28:47;5.80;99.90
24468;DHT22;12634;50.852;5.676;2023-02-11T00:31:15;5.80;99.90
24468;DHT22;12634;50.852;5.676;2023-02-11T00:33:45;5.80;99.90
24468;DHT22;12634;50.852;5.676;2023-02-11T00:36:14;5.80;99.90
24468;DHT22;12634;50.852;5.676;2023-02-11T00:38:42;5.70;99.90
24468;DHT22;12634;50.852;5.676;2023-02-11T00:41:10;5.60;99.90
24468;DHT22;12634;50.852;5.676;2023-02-11T00:43:38;5.70;99.90
24468;DHT22;12634;50.852;5.676;2023-02-11T00:46:05;5.70;99.90
24468;DHT22;12634;50.852;5.676;2023-02-11T00:48:33;5.60;99.90
24468;DHT22;12634;50.852;5.676;2023-02-11T00:51:02;5.60;99.90
24468;DHT22;12634;50.852;5.676;2023-02-11T00:53:30;5.50;99.90
24468;DHT22;12634;50.852;5.676;2023-02-11T00:55:57;5.50;99.90
24468;DHT22;12634;50.852;5.676;2023-02-11T00:58:26;5.50;99.90
24468;DHT22;12634;50.852;5.676;2023-02-11T01:00:53;5.60;99.90
24468;DHT22;12634;50.852;5.676;2023-02-11T01:03:20;5.50;99.90
24468;DHT22;12634;50.852;5.676;2023-02-11T01:05:48;5.50;99.90
24468;DHT22;12634;50.852;5.676;2023-02-11T01:08:16;5.40;99.90
24468;DHT22;12634;50.852;5.676;2023-02-11T01:10:43;5.40;99.90
24468;DHT22;12634;50.852;5.676;2023-02-11T01:13:10;5.30;99.90
24468;DHT22;12634;50.852;5.676;2023-02-11T01:15:38;5.40;99.90
24468;DHT22;12634;50.852;5.676;2023-02-11T01:18:05;5.40;99.90
24468;DHT22;12634;50.852;5.676;2023-02-11T01:20:32;5.50;99.90
24468;DHT22;12634;50.852;5.676;2023-02-11T01:22:59;5.50;99.90
24468;DHT22;12634;50.852;5.676;2023-02-11T01:25:28;5.70;99.90
24468;DHT22;12634;50.852;5.676;2023-02-11T01:27:55;5.70;99.90
24468;DHT22;12634;50.852;5.676;2023-02-11T01:30:22;5.70;99.90
24468;DHT22;12634;50.852;5.676;2023-02-11T01:32:49;5.70;99.90
24468;DHT22;12634;50.852;5.676;2023-02-11T01:35:17;5.70;99.90
24468;DHT22;12634;50.852;5.676;2023-02-11T01:37:44;5.70;99.90
24468;DHT22;12634;50.852;5.676;2023-02-11T01:40:14;5.70;99.90
24468;DHT22;12634;50.852;5.676;2023-02-11T01:42:43;5.70;99.90
24468;DHT22;12634;50.852;5.676;2023-02-11T01:48:20;5.70;99.90
24468;DHT22;12634;50.852;5.676;2023-02-11T01:50:51;5.70;99.90
24468;DHT22;12634;50.852;5.676;2023-02-11T01:53:20;5.80;99.90
24468;DHT22;12634;50.852;5.676;2023-02-11T01:56:06;5.70;99.90
24468;DHT22;12634;50.852;5.676;2023-02-11T01:58:57;5.70;99.90
24468;DHT22;12634;50.852;5.676;2023-02-11T02:01:27;5.70;99.90
24468;DHT22;12634;50.852;5.676;2023-02-11T02:03:59;5.70;99.90
24468;DHT22;12634;50.852;5.676;2023-02-11T02:06:31;5.70;99.90
24468;DHT22;12634;50.852;5.676;2023-02-11T02:09:02;5.70;99.90
24468;DHT22;12634;50.852;5.676;2023-02-11T02:11:30;5.70;99.90
24468;DHT22;12634;50.852;5.676;2023-02-11T02:13:59;5.80;99.90
24468;DHT22;12634;50.852;5.676;2023-02-11T02:16:30;5.80;99.90
24468;DHT22;12634;50.852;5.676;2023-02-11T02:19:22;5.70;99.90
24468;DHT22;12634;50.852;5.676;2023-02-11T02:27:52;5.70;99.90
24468;DHT22;12634;50.852;5.676;2023-02-11T02:30:53;5.70;99.90
24468;DHT22;12634;50.852;5.676;2023-02-11T02:33:36;5.70;99.90
24468;DHT22;12634;50.852;5.676;2023-02-11T02:36:14;5.70;99.90
24468;DHT22;12634;50.852;5.676;2023-02-11T02:38:47;5.70;99.90
24468;DHT22;12634;50.852;5.676;2023-02-11T02:41:19;5.80;99.90
24468;DHT22;12634;50.852;5.676;2023-02-11T02:43:48;5.80;99.90
24468;DHT22;12634;50.852;5.676;2023-02-11T02:46:17;5.80;99.90
24468;DHT22;12634;50.852;5.676;2023-02-11T02:48:47;5.80;99.90
24468;DHT22;12634;50.852;5.676;2023-02-11T02:54:46;5.80;99.90
24468;DHT22;12634;50.852;5.676;2023-02-11T02:57:26;5.80;99.90
24468;DHT22;12634;50.852;5.676;2023-02-11T03:00:05;5.80;99.90
24468;DHT22;12634;50.852;5.676;2023-02-11T03:02:38;5.80;99.90
24468;DHT22;12634;50.852;5.676;2023-02-11T03:05:15;5.80;99.90
24468;DHT22;12634;50.852;5.676;2023-02-11T03:07:50;5.80;99.90
24468;DHT22;12634;50.852;5.676;2023-02-11T03:10:20;5.80;99.90
24468;DHT22;12634;50.852;5.676;2023-02-11T03:12:49;5.80;99.90
24468;DHT22;12634;50.852;5.676;2023-02-11T03:15:18;5.80;99.90
24468;DHT22;12634;50.852;5.676;2023-02-11T03:17:49;5.80;99.90
24468;DHT22;12634;50.852;5.676;2023-02-11T03:20:21;5.80;99.90
24468;DHT22;12634;50.852;5.676;2023-02-11T03:22:53;5.80;99.90
24468;DHT22;12634;50.852;5.676;2023-02-11T03:25:26;5.90;99.90
24468;DHT22;12634;50.852;5.676;2023-02-11T03:28:03;5.90;99.90
24468;DHT22;12634;50.852;5.676;2023-02-11T03:30:37;5.90;99.90
24468;DHT22;12634;50.852;5.676;2023-02-11T03:33:10;5.90;99.90
24468;DHT22;12634;50.852;5.676;2023-02-11T03:35:42;5.90;99.90
24468;DHT22;12634;50.852;5.676;2023-02-11T03:38:14;5.90;99.90
24468;DHT22;12634;50.852;5.676;2023-02-11T03:40:42;6.00;99.90
24468;DHT22;12634;50.852;5.676;2023-02-11T03:43:13;6.00;99.90
24468;DHT22;12634;50.852;5.676;2023-02-11T03:45:43;6.00;99.90
24468;DHT22;12634;50.852;5.676;2023-02-11T03:48:14;6.00;99.90
24468;DHT22;12634;50.852;5.676;2023-02-11T03:50:44;6.00;99.90
24468;DHT22;12634;50.852;5.676;2023-02-11T03:53:13;6.00;99.90
24468;DHT22;12634;50.852;5.676;2023-02-11T03:55:41;6.00;99.90
24468;DHT22;12634;50.852;5.676;2023-02-11T03:58:09;6.00;99.90
24468;DHT22;12634;50.852;5.676;2023-02-11T04:00:38;6.10;99.90
24468;DHT22;12634;50.852;5.676;2023-02-11T04:03:06;6.10;99.90
24468;DHT22;12634;50.852;5.676;2023-02-11T04:05:34;6.10;99.90
24468;DHT22;12634;50.852;5.676;2023-02-11T04:08:03;6.10;99.90
24468;DHT22;12634;50.852;5.676;2023-02-11T04:10:30;6.10;99.90
24468;DHT22;12634;50.852;5.676;2023-02-11T04:12:57;6.10;99.90
24468;DHT22;12634;50.852;5.676;2023-02-11T04:15:25;6.10;99.90
24468;DHT22;12634;50.852;5.676;2023-02-11T04:17:52;6.10;99.90
24468;DHT22;12634;50.852;5.676;2023-02-11T04:20:19;6.10;99.90
24468;DHT22;12634;50.852;5.676;2023-02-11T04:22:46;6.10;99.90
24468;DHT22;12634;50.852;5.676;2023-02-11T04:25:15;6.00;99.90
24468;DHT22;12634;50.852;5.676;2023-02-11T04:27:42;6.00;99.90
24468;DHT22;12634;50.852;5.676;2023-02-11T04:30:12;6.00;99.90
24468;DHT22;12634;50.852;5.676;2023-02-11T04:32:39;5.90;99.90
24468;DHT22;12634;50.852;5.676;2023-02-11T04:35:06;5.90;99.90
24468;DHT22;12634;50.852;5.676;2023-02-11T04:37:34;5.90;99.90
24468;DHT22;12634;50.852;5.676;2023-02-11T04:40:01;5.90;99.90
24468;DHT22;12634;50.852;5.676;2023-02-11T04:42:30;5.90;99.90
24468;DHT22;12634;50.852;5.676;2023-02-11T04:44:57;5.90;99.90
24468;DHT22;12634;50.852;5.676;2023-02-11T04:47:24;5.90;99.90
24468;DHT22;12634;50.852;5.676;2023-02-11T04:49:52;5.90;99.90
24468;DHT22;12634;50.852;5.676;2023-02-11T04:52:19;6.00;99.90
24468;DHT22;12634;50.852;5.676;2023-02-11T04:54:46;6.00;99.90
24468;DHT22;12634;50.852;5.676;2023-02-11T04:57:13;6.00;99.90
24468;DHT22;12634;50.852;5.676;2023-02-11T04:59:42;6.00;99.90
24468;DHT22;12634;50.852;5.676;2023-02-11T05:02:09;6.00;99.90
24468;DHT22;12634;50.852;5.676;2023-02-11T05:04:36;6.00;99.90
24468;DHT22;12634;50.852;5.676;2023-02-11T05:07:03;6.00;99.90
24468;DHT22;12634;50.852;5.676;2023-02-11T05:09:31;6.10;99.90
24468;DHT22;12634;50.852;5.676;2023-02-11T05:11:58;6.10;99.90
24468;DHT22;12634;50.852;5.676;2023-02-11T05:14:25;6.10;99.90
24468;DHT22;12634;50.852;5.676;2023-02-11T05:16:53;6.10;99.90
24468;DHT22;12634;50.852;5.676;2023-02-11T05:19:21;6.10;99.90
24468;DHT22;12634;50.852;5.676;2023-02-11T05:21:48;6.10;99.90
24468;DHT22;12634;50.852;5.676;2023-02-11T05:24:15;6.10;99.90
24468;DHT22;12634;50.852;5.676;2023-02-11T05:26:42;6.20;99.90
24468;DHT22;12634;50.852;5.676;2023-02-11T05:29:09;6.20;99.90
24468;DHT22;12634;50.852;5.676;2023-02-11T05:31:36;6.20;99.90
24468;DHT22;12634;50.852;5.676;2023-02-11T05:34:05;6.20;99.90
24468;DHT22;12634;50.852;5.676;2023-02-11T05:36:32;6.20;99.90
24468;DHT22;12634;50.852;5.676;2023-02-11T05:38:59;6.20;99.90
24468;DHT22;12634;50.852;5.676;2023-02-11T05:41:27;6.20;99.90
24468;DHT22;12634;50.852;5.676;2023-02-11T05:43:54;6.20;99.90
24468;DHT22;12634;50.852;5.676;2023-02-11T05:46:21;6.30;99.90
24468;DHT22;12634;50.852;5.676;2023-02-11T05:48:48;6.30;99.90
24468;DHT22;12634;50.852;5.676;2023-02-11T05:51:17;6.30;99.90
24468;DHT22;12634;50.852;5.676;2023-02-11T05:53:44;6.30;99.90
24468;DHT22;12634;50.852;5.676;2023-02-11T05:56:11;6.30;99.90
24468;DHT22;12634;50.852;5.676;2023-02-11T05:58:39;6.30;99.90
24468;DHT22;12634;50.852;5.676;2023-02-11T06:01:06;6.30;99.90
24468;DHT22;12634;50.852;5.676;2023-02-11T06:03:33;6.30;99.90
24468;DHT22;12634;50.852;5.676;2023-02-11T06:06:00;6.30;99.90
24468;DHT22;12634;50.852;5.676;2023-02-11T06:08:29;6.30;99.90
24468;DHT22;12634;50.852;5.676;2023-02-11T06:10:56;6.40;99.90
24468;DHT22;12634;50.852;5.676;2023-02-11T06:13:23;6.40;99.90
24468;DHT22;12634;50.852;5.676;2023-02-11T06:15:57;6.40;99.90
24468;DHT22;12634;50.852;5.676;2023-02-11T06:18:25;6.40;99.90
24468;DHT22;12634;50.852;5.676;2023-02-11T06:20:52;6.40;99.90
24468;DHT22;12634;50.852;5.676;2023-02-11T06:23:19;6.40;99.90
24468;DHT22;12634;50.852;5.676;2023-02-11T06:25:48;6.40;99.90
24468;DHT22;12634;50.852;5.676;2023-02-11T06:28:15;6.40;99.90
24468;DHT22;12634;50.852;5.676;2023-02-11T06:30:43;6.40;99.90
24468;DHT22;12634;50.852;5.676;2023-02-11T06:33:10;6.50;99.90
24468;DHT22;12634;50.852;5.676;2023-02-11T06:35:38;6.50;99.90
24468;DHT22;12634;50.852;5.676;2023-02-11T06:38:05;6.50;99.90
24468;DHT22;12634;50.852;5.676;2023-02-11T06:40:32;6.60;99.90
24468;DHT22;12634;50.852;5.676;2023-02-11T06:43:01;6.60;99.90
24468;DHT22;12634;50.852;5.676;2023-02-11T06:45:28;6.60;99.90
24468;DHT22;12634;50.852;5.676;2023-02-11T06:47:55;6.60;99.90
24468;DHT22;12634;50.852;5.676;2023-02-11T06:50:22;6.60;99.90
24468;DHT22;12634;50.852;5.676;2023-02-11T06:52:49;6.60;99.90
24468;DHT22;12634;50.852;5.676;2023-02-11T06:55:17;6.60;99.90
24468;DHT22;12634;50.852;5.676;2023-02-11T06:57:44;6.70;99.90
24468;DHT22;12634;50.852;5.676;2023-02-11T07:00:14;6.70;99.90
24468;DHT22;12634;50.852;5.676;2023-02-11T07:02:41;6.70;99.90
24468;DHT22;12634;50.852;5.676;2023-02-11T07:05:09;6.70;99.90
24468;DHT22;12634;50.852;5.676;2023-02-11T07:07:36;6.70;99.90
24468;DHT22;12634;50.852;5.676;2023-02-11T07:10:04;6.70;99.90
24468;DHT22;12634;50.852;5.676;2023-02-11T07:12:31;6.80;99.90
24468;DHT22;12634;50.852;5.676;2023-02-11T07:14:59;6.80;99.90
24468;DHT22;12634;50.852;5.676;2023-02-11T07:17:27;6.80;99.90
24468;DHT22;12634;50.852;5.676;2023-02-11T07:19:54;6.80;99.90
24468;DHT22;12634;50.852;5.676;2023-02-11T07:22:22;6.80;99.90
24468;DHT22;12634;50.852;5.676;2023-02-11T07:24:49;6.80;99.90
24468;DHT22;12634;50.852;5.676;2023-02-11T07:27:16;6.80;99.90
24468;DHT22;12634;50.852;5.676;2023-02-11T07:29:43;6.80;99.90
24468;DHT22;12634;50.852;5.676;2023-02-11T07:32:11;6.80;99.90
24468;DHT22;12634;50.852;5.676;2023-02-11T07:34:40;6.80;99.90
24468;DHT22;12634;50.852;5.676;2023-02-11T07:37:07;6.80;99.90
24468;DHT22;12634;50.852;5.676;2023-02-11T07:39:35;6.90;99.90
24468;DHT22;12634;50.852;5.676;2023-02-11T07:42:03;6.90;99.90
24468;DHT22;12634;50.852;5.676;2023-02-11T07:44:30;6.90;99.90
24468;DHT22;12634;50.852;5.676;2023-02-11T07:46:58;6.90;99.90
24468;DHT22;12634;50.852;5.676;2023-02-11T07:49:25;6.90;99.90
24468;DHT22;12634;50.852;5.676;2023-02-11T07:51:54;6.90;99.90
24468;DHT22;12634;50.852;5.676;2023-02-11T07:54:21;6.90;99.90
24468;DHT22;12634;50.852;5.676;2023-02-11T07:56:48;6.90;99.90
24468;DHT22;12634;50.852;5.676;2023-02-11T07:59:15;6.90;99.90
24468;DHT22;12634;50.852;5.676;2023-02-11T08:01:42;6.90;99.90
24468;DHT22;12634;50.852;5.676;2023-02-11T08:04:10;6.90;99.90
24468;DHT22;12634;50.852;5.676;2023-02-11T08:06:41;6.90;99.90
24468;DHT22;12634;50.852;5.676;2023-02-11T08:09:14;6.90;99.90
24468;DHT22;12634;50.852;5.676;2023-02-11T08:11:42;6.90;99.90
24468;DHT22;12634;50.852;5.676;2023-02-11T08:14:10;6.90;99.90
24468;DHT22;12634;50.852;5.676;2023-02-11T08:16:37;7.00;99.90
24468;DHT22;12634;50.852;5.676;2023-02-11T08:19:06;7.00;99.90
24468;DHT22;12634;50.852;5.676;2023-02-11T08:21:33;7.00;99.90
24468;DHT22;12634;50.852;5.676;2023-02-11T08:24:01;7.00;99.90
24468;DHT22;12634;50.852;5.676;2023-02-11T08:26:31;7.00;99.90
24468;DHT22;12634;50.852;5.676;2023-02-11T08:29:00;7.10;99.90
24468;DHT22;12634;50.852;5.676;2023-02-11T08:31:29;7.00;99.90
24468;DHT22;12634;50.852;5.676;2023-02-11T08:33:57;7.10;99.90
24468;DHT22;12634;50.852;5.676;2023-02-11T08:36:28;7.10;99.90
24468;DHT22;12634;50.852;5.676;2023-02-11T08:38:57;7.10;99.90
24468;DHT22;12634;50.852;5.676;2023-02-11T08:41:27;7.10;99.90
24468;DHT22;12634;50.852;5.676;2023-02-11T08:43:55;7.10;99.90
24468;DHT22;12634;50.852;5.676;2023-02-11T08:46:23;7.10;99.90
24468;DHT22;12634;50.852;5.676;2023-02-11T08:48:50;7.10;99.90
24468;DHT22;12634;50.852;5.676;2023-02-11T08:51:19;7.10;99.90
24468;DHT22;12634;50.852;5.676;2023-02-11T08:53:47;7.10;99.90
24468;DHT22;12634;50.852;5.676;2023-02-11T08:56:16;7.10;99.90
24468;DHT22;12634;50.852;5.676;2023-02-11T08:58:43;7.10;99.90
24468;DHT22;12634;50.852;5.676;2023-02-11T09:01:13;7.10;99.90
24468;DHT22;12634;50.852;5.676;2023-02-11T09:03:41;7.20;99.90
24468;DHT22;12634;50.852;5.676;2023-02-11T09:06:10;7.20;99.90
24468;DHT22;12634;50.852;5.676;2023-02-11T09:08:40;7.30;99.90
24468;DHT22;12634;50.852;5.676;2023-02-11T09:11:09;7.30;99.90
24468;DHT22;12634;50.852;5.676;2023-02-11T09:13:36;7.30;99.90
24468;DHT22;12634;50.852;5.676;2023-02-11T09:16:05;7.30;99.90
24468;DHT22;12634;50.852;5.676;2023-02-11T09:18:33;7.40;99.90
24468;DHT22;12634;50.852;5.676;2023-02-11T09:21:02;7.40;99.90
24468;DHT22;12634;50.852;5.676;2023-02-11T09:23:29;7.40;99.90
24468;DHT22;12634;50.852;5.676;2023-02-11T09:25:59;7.40;99.90
24468;DHT22;12634;50.852;5.676;2023-02-11T09:28:26;7.50;99.90
24468;DHT22;12634;50.852;5.676;2023-02-11T09:30:53;7.40;99.90
24468;DHT22;12634;50.852;5.676;2023-02-11T09:33:20;7.50;99.90
24468;DHT22;12634;50.852;5.676;2023-02-11T09:35:49;7.50;99.90
24468;DHT22;12634;50.852;5.676;2023-02-11T09:38:16;7.50;99.90
24468;DHT22;12634;50.852;5.676;2023-02-11T09:40:44;7.50;99.90
24468;DHT22;12634;50.852;5.676;2023-02-11T09:43:18;7.50;99.90
24468;DHT22;12634;50.852;5.676;2023-02-11T09:45:46;7.50;99.90
24468;DHT22;12634;50.852;5.676;2023-02-11T09:48:16;7.50;99.90
24468;DHT22;12634;50.852;5.676;2023-02-11T09:50:48;7.60;99.90
24468;DHT22;12634;50.852;5.676;2023-02-11T09:53:22;7.60;99.90
24468;DHT22;12634;50.852;5.676;2023-02-11T09:55:52;7.60;99.90
24468;DHT22;12634;50.852;5.676;2023-02-11T09:58:25;7.60;99.90
24468;DHT22;12634;50.852;5.676;2023-02-11T10:00:59;7.60;99.90
24468;DHT22;12634;50.852;5.676;2023-02-11T10:03:56;7.50;99.90
24468;DHT22;12634;50.852;5.676;2023-02-11T10:06:38;7.60;99.90
24468;DHT22;12634;50.852;5.676;2023-02-11T10:09:26;7.60;99.90
24468;DHT22;12634;50.852;5.676;2023-02-11T10:12:02;7.60;99.90
24468;DHT22;12634;50.852;5.676;2023-02-11T10:14:51;7.60;99.90
24468;DHT22;12634;50.852;5.676;2023-02-11T10:17:29;7.60;99.90
24468;DHT22;12634;50.852;5.676;2023-02-11T10:20:18;7.60;99.90
24468;DHT22;12634;50.852;5.676;2023-02-11T10:22:51;7.60;99.90
24468;DHT22;12634;50.852;5.676;2023-02-11T10:25:23;7.60;99.90
24468;DHT22;12634;50.852;5.676;2023-02-11T10:27:52;7.50;99.90
24468;DHT22;12634;50.852;5.676;2023-02-11T10:30:27;7.50;99.90
24468;DHT22;12634;50.852;5.676;2023-02-11T10:32:59;7.60;99.90
24468;DHT22;12634;50.852;5.676;2023-02-11T10:35:29;7.60;99.90
24468;DHT22;12634;50.852;5.676;2023-02-11T10:37:58;7.60;99.90
24468;DHT22;12634;50.852;5.676;2023-02-11T10:40:29;7.60;99.90
24468;DHT22;12634;50.852;5.676;2023-02-11T10:42:58;7.50;99.90
24468;DHT22;12634;50.852;5.676;2023-02-11T10:45:31;7.50;99.90
24468;DHT22;12634;50.852;5.676;2023-02-11T10:47:59;7.60;99.90
24468;DHT22;12634;50.852;5.676;2023-02-11T10:50:29;7.50;99.90
24468;DHT22;12634;50.852;5.676;2023-02-11T10:53:14;7.60;99.90
24468;DHT22;12634;50.852;5.676;2023-02-11T10:55:51;7.60;99.90
24468;DHT22;12634;50.852;5.676;2023-02-11T10:58:24;7.60;99.90
24468;DHT22;12634;50.852;5.676;2023-02-11T11:00:54;7.60;99.90
24468;DHT22;12634;50.852;5.676;2023-02-11T11:03:24;7.60;99.90
24468;DHT22;12634;50.852;5.676;2023-02-11T11:05:54;7.60;99.90
24468;DHT22;12634;50.852;5.676;2023-02-11T11:08:23;7.70;99.90
24468;DHT22;12634;50.852;5.676;2023-02-11T11:11:05;7.70;99.90
24468;DHT22;12634;50.852;5.676;2023-02-11T11:13:35;7.70;99.90
24468;DHT22;12634;50.852;5.676;2023-02-11T11:16:20;7.70;99.90
24468;DHT22;12634;50.852;5.676;2023-02-11T11:18:49;7.70;99.90
24468;DHT22;12634;50.852;5.676;2023-02-11T11:21:20;7.70;99.90
24468;DHT22;12634;50.852;5.676;2023-02-11T11:23:51;7.70;99.90
24468;DHT22;12634;50.852;5.676;2023-02-11T11:26:20;7.70;99.90
24468;DHT22;12634;50.852;5.676;2023-02-11T11:28:57;7.70;99.90
24468;DHT22;12634;50.852;5.676;2023-02-11T11:31:29;7.70;99.90
24468;DHT22;12634;50.852;5.676;2023-02-11T11:33:58;7.70;99.90
24468;DHT22;12634;50.852;5.676;2023-02-11T11:36:33;7.80;99.90
24468;DHT22;12634;50.852;5.676;2023-02-11T11:39:02;7.80;99.90
24468;DHT22;12634;50.852;5.676;2023-02-11T11:41:33;7.80;99.90
24468;DHT22;12634;50.852;5.676;2023-02-11T11:44:03;7.70;99.90
24468;DHT22;12634;50.852;5.676;2023-02-11T11:46:33;7.80;99.90
24468;DHT22;12634;50.852;5.676;2023-02-11T11:49:16;7.80;99.90
24468;DHT22;12634;50.852;5.676;2023-02-11T11:51:50;7.80;99.90
24468;DHT22;12634;50.852;5.676;2023-02-11T11:54:21;7.80;99.90
24468;DHT22;12634;50.852;5.676;2023-02-11T11:56:55;7.80;99.90
24468;DHT22;12634;50.852;5.676;2023-02-11T11:59:26;7.80;99.90
24468;DHT22;12634;50.852;5.676;2023-02-11T12:02:20;7.70;99.90
24468;DHT22;12634;50.852;5.676;2023-02-11T12:05:00;7.80;99.90
24468;DHT22;12634;50.852;5.676;2023-02-11T12:07:37;7.80;99.90
24468;DHT22;12634;50.852;5.676;2023-02-11T12:13:32;7.80;99.90
24468;DHT22;12634;50.852;5.676;2023-02-11T12:16:15;7.80;99.90
24468;DHT22;12634;50.852;5.676;2023-02-11T12:19:08;7.80;99.90
24468;DHT22;12634;50.852;5.676;2023-02-11T12:21:45;7.90;99.90
24468;DHT22;12634;50.852;5.676;2023-02-11T12:24:25;7.90;99.90
24468;DHT22;12634;50.852;5.676;2023-02-11T12:27:00;7.90;99.90
24468;DHT22;12634;50.852;5.676;2023-02-11T12:29:39;7.90;99.90
24468;DHT22;12634;50.852;5.676;2023-02-11T12:32:20;7.90;99.90
24468;DHT22;12634;50.852;5.676;2023-02-11T12:37:48;7.90;99.90
24468;DHT22;12634;50.852;5.676;2023-02-11T12:40:24;8.00;99.90
24468;DHT22;12634;50.852;5.676;2023-02-11T12:42:59;8.00;99.90
24468;DHT22;12634;50.852;5.676;2023-02-11T12:45:57;7.90;99.90
24468;DHT22;12634;50.852;5.676;2023-02-11T12:48:49;7.90;99.90
24468;DHT22;12634;50.852;5.676;2023-02-11T12:51:27;7.90;99.90
24468;DHT22;12634;50.852;5.676;2023-02-11T12:54:15;7.90;99.90
24468;DHT22;12634;50.852;5.676;2023-02-11T12:56:47;7.90;99.90
24468;DHT22;12634;50.852;5.676;2023-02-11T12:59:28;7.90;99.90
24468;DHT22;12634;50.852;5.676;2023-02-11T13:02:01;7.90;99.90
24468;DHT22;12634;50.852;5.676;2023-02-11T13:04:35;8.00;99.90
24468;DHT22;12634;50.852;5.676;2023-02-11T13:07:10;8.00;99.90
24468;DHT22;12634;50.852;5.676;2023-02-11T13:09:42;8.10;99.90
24468;DHT22;12634;50.852;5.676;2023-02-11T13:12:12;8.10;99.90
24468;DHT22;12634;50.852;5.676;2023-02-11T13:15:02;8.10;99.90
24468;DHT22;12634;50.852;5.676;2023-02-11T13:17:35;8.10;99.90
24468;DHT22;12634;50.852;5.676;2023-02-11T13:20:14;8.10;99.90
24468;DHT22;12634;50.852;5.676;2023-02-11T13:22:49;8.10;99.90
24468;DHT22;12634;50.852;5.676;2023-02-11T13:25:28;8.10;99.90
24468;DHT22;12634;50.852;5.676;2023-02-11T13:28:02;8.10;99.90
24468;DHT22;12634;50.852;5.676;2023-02-11T13:30:32;8.10;99.90
24468;DHT22;12634;50.852;5.676;2023-02-11T13:35:48;8.10;99.90
24468;DHT22;12634;50.852;5.676;2023-02-11T13:38:36;8.10;99.90
24468;DHT22;12634;50.852;5.676;2023-02-11T13:41:06;8.10;99.90
24468;DHT22;12634;50.852;5.676;2023-02-11T13:43:41;8.20;99.90
24468;DHT22;12634;50.852;5.676;2023-02-11T13:46:11;8.20;99.90
24468;DHT22;12634;50.852;5.676;2023-02-11T13:48:45;8.20;99.90
24468;DHT22;12634;50.852;5.676;2023-02-11T13:51:16;8.20;99.90
24468;DHT22;12634;50.852;5.676;2023-02-11T13:53:46;8.20;99.90
24468;DHT22;12634;50.852;5.676;2023-02-11T13:56:28;8.20;99.90
24468;DHT22;12634;50.852;5.676;2023-02-11T13:58:57;8.20;99.90
24468;DHT22;12634;50.852;5.676;2023-02-11T14:07:35;8.20;99.90
24468;DHT22;12634;50.852;5.676;2023-02-11T14:10:49;8.20;99.90
24468;DHT22;12634;50.852;5.676;2023-02-11T14:13:23;8.30;99.90
24468;DHT22;12634;50.852;5.676;2023-02-11T14:16:06;8.20;99.90
24468;DHT22;12634;50.852;5.676;2023-02-11T14:18:39;8.30;99.90
24468;DHT22;12634;50.852;5.676;2023-02-11T14:21:31;8.30;99.90
24468;DHT22;12634;50.852;5.676;2023-02-11T14:27:04;8.30;99.90
24468;DHT22;12634;50.852;5.676;2023-02-11T14:29:40;8.30;99.90
24468;DHT22;12634;50.852;5.676;2023-02-11T14:32:16;8.30;99.90
24468;DHT22;12634;50.852;5.676;2023-02-11T14:34:52;8.30;99.90
24468;DHT22;12634;50.852;5.676;2023-02-11T14:37:36;8.30;99.90
24468;DHT22;12634;50.852;5.676;2023-02-11T14:40:21;8.30;99.90
24468;DHT22;12634;50.852;5.676;2023-02-11T14:42:52;8.20;99.90
24468;DHT22;12634;50.852;5.676;2023-02-11T14:45:23;8.30;99.90
24468;DHT22;12634;50.852;5.676;2023-02-11T14:47:56;8.30;99.90
24468;DHT22;12634;50.852;5.676;2023-02-11T14:50:26;8.20;99.90
24468;DHT22;12634;50.852;5.676;2023-02-11T14:52:55;8.30;99.90
24468;DHT22;12634;50.852;5.676;2023-02-11T14:55:30;8.20;99.90
24468;DHT22;12634;50.852;5.676;2023-02-11T14:58:06;8.30;99.90
24468;DHT22;12634;50.852;5.676;2023-02-11T15:00:47;8.30;99.90
24468;DHT22;12634;50.852;5.676;2023-02-11T15:03:25;8.30;99.90
24468;DHT22;12634;50.852;5.676;2023-02-11T15:05:54;8.30;99.90
24468;DHT22;12634;50.852;5.676;2023-02-11T15:08:22;8.30;99.90
24468;DHT22;12634;50.852;5.676;2023-02-11T15:10:49;8.30;99.90
24468;DHT22;12634;50.852;5.676;2023-02-11T15:13:23;8.30;99.90
24468;DHT22;12634;50.852;5.676;2023-02-11T15:15:59;8.30;99.90
24468;DHT22;12634;50.852;5.676;2023-02-11T15:18:33;8.30;99.90
24468;DHT22;12634;50.852;5.676;2023-02-11T15:21:01;8.30;99.90
24468;DHT22;12634;50.852;5.676;2023-02-11T15:23:30;8.30;99.90
24468;DHT22;12634;50.852;5.676;2023-02-11T15:25:57;8.40;99.90
24468;DHT22;12634;50.852;5.676;2023-02-11T15:28:32;8.40;99.90
24468;DHT22;12634;50.852;5.676;2023-02-11T15:31:02;8.40;99.90
24468;DHT22;12634;50.852;5.676;2023-02-11T15:33:30;8.40;99.90
24468;DHT22;12634;50.852;5.676;2023-02-11T15:35:58;8.40;99.90
24468;DHT22;12634;50.852;5.676;2023-02-11T15:38:26;8.40;99.90
24468;DHT22;12634;50.852;5.676;2023-02-11T15:40:56;8.40;99.90
24468;DHT22;12634;50.852;5.676;2023-02-11T15:43:40;8.40;99.90
24468;DHT22;12634;50.852;5.676;2023-02-11T15:46:09;8.40;99.90
24468;DHT22;12634;50.852;5.676;2023-02-11T15:48:41;8.40;99.90
24468;DHT22;12634;50.852;5.676;2023-02-11T15:51:18;8.30;99.90
24468;DHT22;12634;50.852;5.676;2023-02-11T15:53:48;8.30;99.90
24468;DHT22;12634;50.852;5.676;2023-02-11T15:56:20;8.40;99.90
24468;DHT22;12634;50.852;5.676;2023-02-11T15:58:52;8.40;99.90
24468;DHT22;12634;50.852;5.676;2023-02-11T16:01:29;8.30;99.90
24468;DHT22;12634;50.852;5.676;2023-02-11T16:03:56;8.30;99.90
24468;DHT22;12634;50.852;5.676;2023-02-11T16:06:25;8.30;99.90
24468;DHT22;12634;50.852;5.676;2023-02-11T16:08:59;8.30;99.90
24468;DHT22;12634;50.852;5.676;2023-02-11T16:11:28;8.30;99.90
24468;DHT22;12634;50.852;5.676;2023-02-11T16:13:58;8.30;99.90
24468;DHT22;12634;50.852;5.676;2023-02-11T16:16:28;8.30;99.90
24468;DHT22;12634;50.852;5.676;2023-02-11T16:18:59;8.30;99.90
24468;DHT22;12634;50.852;5.676;2023-02-11T16:21:29;8.30;99.90
24468;DHT22;12634;50.852;5.676;2023-02-11T16:24:05;8.30;99.90
24468;DHT22;12634;50.852;5.676;2023-02-11T16:26:35;8.30;99.90
24468;DHT22;12634;50.852;5.676;2023-02-11T16:29:11;8.30;99.90
24468;DHT22;12634;50.852;5.676;2023-02-11T16:31:41;8.20;99.90
24468;DHT22;12634;50.852;5.676;2023-02-11T16:34:14;8.20;99.90
24468;DHT22;12634;50.852;5.676;2023-02-11T16:36:41;8.20;99.90
24468;DHT22;12634;50.852;5.676;2023-02-11T16:39:09;8.30;99.90
24468;DHT22;12634;50.852;5.676;2023-02-11T16:41:36;8.30;99.90